Reddick, Illinois
Current Conditions -  °F | °C
As of 6:35 AM on Friday 24 Oct 2014 (Local Time) from KIKK Reporting Station
Clear Clear  
Wind Chill:   Ceiling: Unl
Heat Index:   Visibility: 7mi
Dew Point:   Wind: 3mph
Humidity: 93%   Direction: 220°SW
Pressure: 30.08"   Gusts: NA
Location:  41.1°N, 88.25°W
Report Text: KIKK 241135Z AUTO 22003KT 7SM CLR 08/07 A3008 RMK AO2 T00760066
Loading
Personal Weather Stations






























Interactive Weather Map
Tropical Storm Tracking
New forecast layout! Learn more

10-Day Weather Forecast

Advertisements
Track Severe Weather on mobile